Skip Navigation Links Skip Navigation Links

Current Weather

Central Park, New York

For information only: do not use for flight planning or navigation.
Latest weather
Observation time Wednesday, December 13, 2017 7:51 PM EST
Local time Wednesday, December 13, 2017 9:03 PM EST
Flight conditions Visual Meteorological Conditions
Winds
Wind direction West (260°)
Winds variable from 220° to 280°
Wind speed 13 mph
Wind gusting to 22 mph
Visibility 10 mi.
Sky condition
Ceiling unlimited
Sky clear
Temperature 27°F
Dewpoint 7°F
Altimeter 29.69 in.Hg
Derived measurements
Relative humidity 42%
Wind chill 16°F
Density altitude -1724 ft.
Sea-level pressure 29.67 in.Hg
Remarks
Fully automated report.
System requires maintenance.
Automated weather observing station with precipitation discriminator.
METAR KNYC 140051Z AUTO 26011G19KT 220V280 10SM CLR M03/M14 A2969 RMK AO2 SLP047 T10281139 $

Settings

Location code

InnerDrive.Weather 4.0.6144.1 Release CLR 4.0.30319.36366
Copyright ©2015 Inner Drive Technology. All rights reserved. Portions Copyright ©1986-2015 David Braverman.

Find weather

Site navigation


Skip Navigation Links

Place info

Page info

PayPal - The safer, easier way to pay online!

Return home.

Copyright ©2017 Inner Drive Technology. Purveyors of fine, hand-crafted computer software. Page printed 2017-12-14T02:04:00 UTC.